Risca, United Kingdom
Current Conditions -  °F | °C
As of 9:20 PM on Friday 31 Oct 2014 (Local Time) from EGFF Reporting Station
Broken Clouds Broken Clouds  
Wind Chill: 63°   Ceiling: 2200
Heat Index: 63°   Visibility: 6mi
Dew Point: 59°   Wind: 13mph
Humidity: 88%   Direction: 190°S
Pressure: 29.85"   Gusts: NA
Location:  51.61°N, 3.1°W
Report Text: EGFF 312120Z AUTO 19011KT 9999 BKN022 17/15 Q1011
Loading
Personal Weather Stations






























Interactive Weather Map
Tropical Storm Tracking
New forecast layout! Learn more

10-Day Weather Forecast

Advertisements
Track Severe Weather on mobile